Lockhart, Alabama
Current Conditions -  °F | °C
As of 7:58 PM on Saturday 25 Oct 2014 (Local Time) from K0J4 Reporting Station
Clear Clear  
Wind Chill: 57°   Ceiling: Unl
Heat Index: 57°   Visibility: 10mi
Dew Point: 52°   Wind: 0mph
Humidity: 83%   Direction: NA
Pressure: 30.07"   Gusts: NA
Location:  31.01°N, 86.35°W
Report Text: K0J4 260058Z AUTO 00000KT 10SM CLR 14/11 A3007 RMK AO2 SLP181 T01390111 $
Loading
Personal Weather Stations






























Interactive Weather Map
Tropical Storm Tracking
New forecast layout! Learn more

10-Day Weather Forecast

Advertisements
Track Severe Weather on mobile